sensor_id;sensor_type;location;lat;lon;timestamp;P1;durP1;ratioP1;P2;durP2;ratioP2
48524;SDS011;34316;51.514;-0.178;2022-12-07T00:01:15;33.83;;;18.45;;
48524;SDS011;34316;51.514;-0.178;2022-12-07T00:03:18;36.20;;;19.73;;
48524;SDS011;34316;51.514;-0.178;2022-12-07T00:05:39;35.13;;;19.90;;
48524;SDS011;34316;51.514;-0.178;2022-12-07T00:07:40;37.35;;;20.90;;
48524;SDS011;34316;51.514;-0.178;2022-12-07T00:09:42;43.78;;;21.05;;
48524;SDS011;34316;51.514;-0.178;2022-12-07T00:11:48;38.83;;;20.13;;
48524;SDS011;34316;51.514;-0.178;2022-12-07T00:13:55;36.88;;;19.23;;
48524;SDS011;34316;51.514;-0.178;2022-12-07T00:16:02;35.42;;;19.42;;
48524;SDS011;34316;51.514;-0.178;2022-12-07T00:18:05;37.58;;;21.25;;
48524;SDS011;34316;51.514;-0.178;2022-12-07T00:20:07;39.40;;;20.70;;
48524;SDS011;34316;51.514;-0.178;2022-12-07T00:22:09;35.30;;;19.45;;
48524;SDS011;34316;51.514;-0.178;2022-12-07T00:24:10;37.90;;;20.73;;
48524;SDS011;34316;51.514;-0.178;2022-12-07T00:28:19;42.03;;;24.23;;
48524;SDS011;34316;51.514;-0.178;2022-12-07T00:30:21;40.70;;;23.38;;
48524;SDS011;34316;51.514;-0.178;2022-12-07T00:32:23;43.17;;;23.15;;
48524;SDS011;34316;51.514;-0.178;2022-12-07T00:34:25;40.40;;;22.55;;
48524;SDS011;34316;51.514;-0.178;2022-12-07T00:36:27;44.63;;;23.80;;
48524;SDS011;34316;51.514;-0.178;2022-12-07T00:38:29;42.60;;;23.90;;
48524;SDS011;34316;51.514;-0.178;2022-12-07T00:40:32;41.80;;;23.27;;
48524;SDS011;34316;51.514;-0.178;2022-12-07T00:42:33;45.35;;;23.45;;
48524;SDS011;34316;51.514;-0.178;2022-12-07T00:44:35;39.38;;;22.58;;
48524;SDS011;34316;51.514;-0.178;2022-12-07T00:46:37;48.58;;;21.83;;
48524;SDS011;34316;51.514;-0.178;2022-12-07T00:48:39;41.80;;;22.25;;
48524;SDS011;34316;51.514;-0.178;2022-12-07T00:50:40;36.95;;;21.27;;
48524;SDS011;34316;51.514;-0.178;2022-12-07T00:52:42;34.60;;;19.80;;
48524;SDS011;34316;51.514;-0.178;2022-12-07T00:54:44;41.67;;;20.90;;
48524;SDS011;34316;51.514;-0.178;2022-12-07T00:56:46;37.90;;;19.65;;
48524;SDS011;34316;51.514;-0.178;2022-12-07T00:58:51;34.70;;;18.75;;
48524;SDS011;34316;51.514;-0.178;2022-12-07T01:00:59;34.72;;;17.85;;
48524;SDS011;34316;51.514;-0.178;2022-12-07T01:03:02;34.85;;;19.45;;
48524;SDS011;34316;51.514;-0.178;2022-12-07T01:05:05;34.17;;;17.70;;
48524;SDS011;34316;51.514;-0.178;2022-12-07T01:07:07;39.25;;;21.17;;
48524;SDS011;34316;51.514;-0.178;2022-12-07T01:09:09;44.97;;;24.52;;
48524;SDS011;34316;51.514;-0.178;2022-12-07T01:11:12;45.95;;;25.67;;
48524;SDS011;34316;51.514;-0.178;2022-12-07T01:13:15;43.95;;;25.23;;
48524;SDS011;34316;51.514;-0.178;2022-12-07T01:15:17;47.08;;;25.30;;
48524;SDS011;34316;51.514;-0.178;2022-12-07T01:17:19;47.63;;;26.45;;
48524;SDS011;34316;51.514;-0.178;2022-12-07T01:19:20;45.85;;;24.95;;
48524;SDS011;34316;51.514;-0.178;2022-12-07T01:21:29;40.97;;;23.80;;
48524;SDS011;34316;51.514;-0.178;2022-12-07T01:23:36;44.05;;;24.70;;
48524;SDS011;34316;51.514;-0.178;2022-12-07T01:25:37;40.92;;;24.00;;
48524;SDS011;34316;51.514;-0.178;2022-12-07T01:27:39;44.95;;;24.80;;
48524;SDS011;34316;51.514;-0.178;2022-12-07T01:29:41;43.10;;;24.13;;
48524;SDS011;34316;51.514;-0.178;2022-12-07T01:31:42;43.28;;;24.70;;
48524;SDS011;34316;51.514;-0.178;2022-12-07T01:33:45;42.83;;;25.85;;
48524;SDS011;34316;51.514;-0.178;2022-12-07T01:35:48;42.45;;;23.20;;
48524;SDS011;34316;51.514;-0.178;2022-12-07T01:37:50;40.42;;;23.77;;
48524;SDS011;34316;51.514;-0.178;2022-12-07T01:39:53;44.22;;;22.55;;
48524;SDS011;34316;51.514;-0.178;2022-12-07T01:41:55;45.20;;;24.15;;
48524;SDS011;34316;51.514;-0.178;2022-12-07T01:46:33;39.03;;;23.23;;
48524;SDS011;34316;51.514;-0.178;2022-12-07T01:48:37;37.60;;;23.33;;
48524;SDS011;34316;51.514;-0.178;2022-12-07T01:50:40;40.35;;;23.05;;
48524;SDS011;34316;51.514;-0.178;2022-12-07T01:52:43;38.65;;;22.85;;
48524;SDS011;34316;51.514;-0.178;2022-12-07T01:54:47;41.15;;;23.38;;
48524;SDS011;34316;51.514;-0.178;2022-12-07T01:56:52;48.00;;;23.48;;
48524;SDS011;34316;51.514;-0.178;2022-12-07T01:58:55;42.00;;;22.33;;
48524;SDS011;34316;51.514;-0.178;2022-12-07T02:00:58;45.58;;;23.00;;
48524;SDS011;34316;51.514;-0.178;2022-12-07T02:03:04;45.22;;;22.25;;
48524;SDS011;34316;51.514;-0.178;2022-12-07T02:05:12;44.17;;;23.50;;
48524;SDS011;34316;51.514;-0.178;2022-12-07T02:07:14;39.13;;;21.88;;
48524;SDS011;34316;51.514;-0.178;2022-12-07T02:09:16;38.97;;;22.10;;
48524;SDS011;34316;51.514;-0.178;2022-12-07T02:11:18;39.05;;;22.10;;
48524;SDS011;34316;51.514;-0.178;2022-12-07T02:13:23;40.00;;;21.88;;
48524;SDS011;34316;51.514;-0.178;2022-12-07T02:16:13;45.55;;;22.38;;
48524;SDS011;34316;51.514;-0.178;2022-12-07T02:18:02;42.75;;;22.30;;
48524;SDS011;34316;51.514;-0.178;2022-12-07T02:32:16;40.65;;;22.67;;
48524;SDS011;34316;51.514;-0.178;2022-12-07T02:35:08;37.13;;;21.08;;
48524;SDS011;34316;51.514;-0.178;2022-12-07T02:36:51;35.13;;;21.60;;
48524;SDS011;34316;51.514;-0.178;2022-12-07T02:38:58;39.35;;;21.17;;
48524;SDS011;34316;51.514;-0.178;2022-12-07T02:41:07;36.85;;;21.08;;
48524;SDS011;34316;51.514;-0.178;2022-12-07T02:45:57;36.72;;;21.40;;
48524;SDS011;34316;51.514;-0.178;2022-12-07T02:48:01;36.05;;;21.55;;
48524;SDS011;34316;51.514;-0.178;2022-12-07T02:50:04;33.83;;;19.80;;
48524;SDS011;34316;51.514;-0.178;2022-12-07T02:52:07;37.45;;;21.65;;
48524;SDS011;34316;51.514;-0.178;2022-12-07T02:54:13;34.97;;;20.60;;
48524;SDS011;34316;51.514;-0.178;2022-12-07T02:56:22;36.58;;;19.80;;
48524;SDS011;34316;51.514;-0.178;2022-12-07T03:01:28;40.60;;;22.17;;
48524;SDS011;34316;51.514;-0.178;2022-12-07T03:03:36;36.40;;;20.95;;
48524;SDS011;34316;51.514;-0.178;2022-12-07T03:10:22;37.45;;;20.70;;
48524;SDS011;34316;51.514;-0.178;2022-12-07T03:12:35;37.88;;;20.58;;
48524;SDS011;34316;51.514;-0.178;2022-12-07T03:19:28;38.03;;;20.25;;
48524;SDS011;34316;51.514;-0.178;2022-12-07T03:21:34;35.55;;;20.00;;
48524;SDS011;34316;51.514;-0.178;2022-12-07T03:23:39;36.22;;;21.17;;
48524;SDS011;34316;51.514;-0.178;2022-12-07T03:25:43;34.88;;;19.33;;
48524;SDS011;34316;51.514;-0.178;2022-12-07T03:27:56;34.85;;;20.80;;
48524;SDS011;34316;51.514;-0.178;2022-12-07T03:30:07;36.55;;;21.27;;
48524;SDS011;34316;51.514;-0.178;2022-12-07T03:32:13;35.33;;;20.60;;
48524;SDS011;34316;51.514;-0.178;2022-12-07T03:34:19;36.30;;;20.58;;
48524;SDS011;34316;51.514;-0.178;2022-12-07T03:36:30;35.97;;;21.25;;
48524;SDS011;34316;51.514;-0.178;2022-12-07T03:38:42;39.20;;;20.60;;
48524;SDS011;34316;51.514;-0.178;2022-12-07T03:40:49;35.83;;;21.13;;
48524;SDS011;34316;51.514;-0.178;2022-12-07T03:42:56;38.47;;;21.27;;
48524;SDS011;34316;51.514;-0.178;2022-12-07T03:45:01;45.55;;;21.33;;
48524;SDS011;34316;51.514;-0.178;2022-12-07T03:49:43;36.95;;;19.70;;
48524;SDS011;34316;51.514;-0.178;2022-12-07T03:54:10;32.45;;;19.13;;
48524;SDS011;34316;51.514;-0.178;2022-12-07T03:56:16;54.58;;;32.40;;
48524;SDS011;34316;51.514;-0.178;2022-12-07T03:58:19;62.83;;;33.00;;
48524;SDS011;34316;51.514;-0.178;2022-12-07T04:00:22;39.65;;;21.23;;
48524;SDS011;34316;51.514;-0.178;2022-12-07T04:02:25;40.25;;;22.77;;
48524;SDS011;34316;51.514;-0.178;2022-12-07T04:04:28;37.50;;;21.15;;
48524;SDS011;34316;51.514;-0.178;2022-12-07T04:06:30;41.13;;;21.83;;
48524;SDS011;34316;51.514;-0.178;2022-12-07T04:08:32;45.58;;;22.85;;
48524;SDS011;34316;51.514;-0.178;2022-12-07T04:10:33;35.53;;;20.88;;
48524;SDS011;34316;51.514;-0.178;2022-12-07T04:12:35;37.38;;;20.85;;
48524;SDS011;34316;51.514;-0.178;2022-12-07T04:14:37;41.90;;;22.05;;
48524;SDS011;34316;51.514;-0.178;2022-12-07T04:16:39;39.42;;;20.80;;
48524;SDS011;34316;51.514;-0.178;2022-12-07T04:18:45;36.88;;;21.05;;
48524;SDS011;34316;51.514;-0.178;2022-12-07T04:20:46;40.08;;;21.88;;
48524;SDS011;34316;51.514;-0.178;2022-12-07T04:22:48;36.80;;;21.33;;
48524;SDS011;34316;51.514;-0.178;2022-12-07T04:24:50;41.35;;;21.50;;
48524;SDS011;34316;51.514;-0.178;2022-12-07T04:26:52;35.88;;;21.42;;
48524;SDS011;34316;51.514;-0.178;2022-12-07T04:28:54;41.67;;;20.95;;
48524;SDS011;34316;51.514;-0.178;2022-12-07T04:30:55;35.28;;;21.65;;
48524;SDS011;34316;51.514;-0.178;2022-12-07T04:32:57;38.53;;;21.02;;
48524;SDS011;34316;51.514;-0.178;2022-12-07T04:34:59;44.92;;;22.23;;
48524;SDS011;34316;51.514;-0.178;2022-12-07T04:37:00;38.08;;;21.25;;
48524;SDS011;34316;51.514;-0.178;2022-12-07T04:39:02;37.13;;;22.23;;
48524;SDS011;34316;51.514;-0.178;2022-12-07T04:41:05;39.75;;;22.17;;
48524;SDS011;34316;51.514;-0.178;2022-12-07T04:43:07;44.38;;;23.42;;
48524;SDS011;34316;51.514;-0.178;2022-12-07T04:45:09;40.17;;;22.48;;
48524;SDS011;34316;51.514;-0.178;2022-12-07T04:47:11;41.40;;;23.55;;
48524;SDS011;34316;51.514;-0.178;2022-12-07T04:49:13;38.63;;;21.88;;
48524;SDS011;34316;51.514;-0.178;2022-12-07T04:51:16;40.65;;;21.92;;
48524;SDS011;34316;51.514;-0.178;2022-12-07T04:53:20;40.75;;;22.65;;
48524;SDS011;34316;51.514;-0.178;2022-12-07T04:55:22;41.47;;;23.13;;
48524;SDS011;34316;51.514;-0.178;2022-12-07T04:57:24;41.35;;;22.27;;
48524;SDS011;34316;51.514;-0.178;2022-12-07T04:59:25;38.33;;;22.50;;
48524;SDS011;34316;51.514;-0.178;2022-12-07T05:01:27;39.03;;;21.95;;
48524;SDS011;34316;51.514;-0.178;2022-12-07T05:03:29;36.97;;;22.77;;
48524;SDS011;34316;51.514;-0.178;2022-12-07T05:05:31;42.70;;;23.05;;
48524;SDS011;34316;51.514;-0.178;2022-12-07T05:07:33;41.25;;;20.70;;
48524;SDS011;34316;51.514;-0.178;2022-12-07T05:09:34;38.55;;;21.95;;
48524;SDS011;34316;51.514;-0.178;2022-12-07T05:11:36;38.92;;;21.15;;
48524;SDS011;34316;51.514;-0.178;2022-12-07T05:13:41;44.83;;;23.65;;
48524;SDS011;34316;51.514;-0.178;2022-12-07T05:15:43;36.97;;;21.30;;
48524;SDS011;34316;51.514;-0.178;2022-12-07T05:17:45;38.28;;;20.38;;
48524;SDS011;34316;51.514;-0.178;2022-12-07T05:19:47;38.38;;;21.48;;
48524;SDS011;34316;51.514;-0.178;2022-12-07T05:21:48;35.47;;;20.35;;
48524;SDS011;34316;51.514;-0.178;2022-12-07T05:23:50;41.88;;;20.73;;
48524;SDS011;34316;51.514;-0.178;2022-12-07T05:25:52;42.60;;;20.70;;
48524;SDS011;34316;51.514;-0.178;2022-12-07T05:27:54;37.03;;;20.90;;
48524;SDS011;34316;51.514;-0.178;2022-12-07T05:29:56;38.30;;;19.75;;
48524;SDS011;34316;51.514;-0.178;2022-12-07T05:31:58;41.20;;;20.42;;
48524;SDS011;34316;51.514;-0.178;2022-12-07T05:33:59;37.72;;;20.45;;
48524;SDS011;34316;51.514;-0.178;2022-12-07T05:36:01;36.03;;;21.60;;
48524;SDS011;34316;51.514;-0.178;2022-12-07T05:38:06;33.60;;;20.48;;
48524;SDS011;34316;51.514;-0.178;2022-12-07T05:40:08;36.58;;;20.73;;
48524;SDS011;34316;51.514;-0.178;2022-12-07T05:42:11;38.80;;;21.48;;
48524;SDS011;34316;51.514;-0.178;2022-12-07T05:44:16;39.95;;;21.38;;
48524;SDS011;34316;51.514;-0.178;2022-12-07T05:46:17;43.78;;;22.30;;
48524;SDS011;34316;51.514;-0.178;2022-12-07T05:48:19;37.72;;;21.23;;
48524;SDS011;34316;51.514;-0.178;2022-12-07T05:50:21;42.65;;;22.25;;
48524;SDS011;34316;51.514;-0.178;2022-12-07T05:52:22;45.10;;;24.85;;
48524;SDS011;34316;51.514;-0.178;2022-12-07T05:54:24;38.47;;;21.92;;
48524;SDS011;34316;51.514;-0.178;2022-12-07T05:56:26;41.17;;;22.15;;
48524;SDS011;34316;51.514;-0.178;2022-12-07T05:58:28;42.08;;;23.17;;
48524;SDS011;34316;51.514;-0.178;2022-12-07T06:00:48;43.83;;;21.58;;
48524;SDS011;34316;51.514;-0.178;2022-12-07T06:02:51;39.92;;;22.75;;
48524;SDS011;34316;51.514;-0.178;2022-12-07T06:04:53;47.63;;;21.27;;
48524;SDS011;34316;51.514;-0.178;2022-12-07T06:06:55;38.97;;;22.08;;
48524;SDS011;34316;51.514;-0.178;2022-12-07T06:08:57;41.47;;;21.33;;
48524;SDS011;34316;51.514;-0.178;2022-12-07T06:10:58;41.38;;;21.88;;
48524;SDS011;34316;51.514;-0.178;2022-12-07T06:13:19;41.75;;;22.42;;
48524;SDS011;34316;51.514;-0.178;2022-12-07T06:15:20;42.97;;;21.25;;
48524;SDS011;34316;51.514;-0.178;2022-12-07T06:17:24;42.47;;;22.48;;
48524;SDS011;34316;51.514;-0.178;2022-12-07T06:19:26;36.10;;;20.85;;
48524;SDS011;34316;51.514;-0.178;2022-12-07T06:21:28;46.28;;;24.42;;
48524;SDS011;34316;51.514;-0.178;2022-12-07T06:23:29;47.38;;;24.30;;
48524;SDS011;34316;51.514;-0.178;2022-12-07T06:25:31;40.63;;;23.58;;
48524;SDS011;34316;51.514;-0.178;2022-12-07T06:27:33;45.72;;;23.90;;
48524;SDS011;34316;51.514;-0.178;2022-12-07T06:29:34;39.70;;;22.42;;
48524;SDS011;34316;51.514;-0.178;2022-12-07T06:31:36;43.00;;;23.40;;
48524;SDS011;34316;51.514;-0.178;2022-12-07T06:33:38;45.17;;;23.52;;
48524;SDS011;34316;51.514;-0.178;2022-12-07T06:35:39;44.60;;;23.92;;
48524;SDS011;34316;51.514;-0.178;2022-12-07T06:37:41;44.10;;;23.58;;
48524;SDS011;34316;51.514;-0.178;2022-12-07T06:39:42;42.70;;;23.30;;
48524;SDS011;34316;51.514;-0.178;2022-12-07T06:41:44;41.45;;;23.42;;
48524;SDS011;34316;51.514;-0.178;2022-12-07T06:43:46;43.50;;;24.77;;
48524;SDS011;34316;51.514;-0.178;2022-12-07T06:45:55;42.63;;;23.65;;
48524;SDS011;34316;51.514;-0.178;2022-12-07T06:47:57;41.13;;;23.42;;
48524;SDS011;34316;51.514;-0.178;2022-12-07T06:49:59;46.08;;;23.92;;
48524;SDS011;34316;51.514;-0.178;2022-12-07T06:52:01;41.13;;;23.58;;
48524;SDS011;34316;51.514;-0.178;2022-12-07T06:54:07;48.55;;;25.10;;
48524;SDS011;34316;51.514;-0.178;2022-12-07T06:56:09;47.92;;;25.55;;
48524;SDS011;34316;51.514;-0.178;2022-12-07T06:58:11;52.53;;;24.88;;
48524;SDS011;34316;51.514;-0.178;2022-12-07T07:00:13;48.50;;;26.50;;
48524;SDS011;34316;51.514;-0.178;2022-12-07T07:02:22;58.47;;;27.02;;
48524;SDS011;34316;51.514;-0.178;2022-12-07T07:04:24;53.13;;;29.40;;
48524;SDS011;34316;51.514;-0.178;2022-12-07T07:06:26;51.28;;;30.73;;
48524;SDS011;34316;51.514;-0.178;2022-12-07T07:08:27;61.85;;;31.05;;
48524;SDS011;34316;51.514;-0.178;2022-12-07T07:10:29;58.47;;;30.77;;
48524;SDS011;34316;51.514;-0.178;2022-12-07T07:12:31;61.13;;;32.42;;
48524;SDS011;34316;51.514;-0.178;2022-12-07T07:14:32;68.38;;;37.47;;
48524;SDS011;34316;51.514;-0.178;2022-12-07T07:16:34;66.20;;;36.72;;
48524;SDS011;34316;51.514;-0.178;2022-12-07T07:18:36;67.80;;;39.08;;
48524;SDS011;34316;51.514;-0.178;2022-12-07T07:20:38;75.53;;;41.78;;
48524;SDS011;34316;51.514;-0.178;2022-12-07T07:22:40;74.00;;;40.50;;
48524;SDS011;34316;51.514;-0.178;2022-12-07T07:24:42;72.78;;;40.88;;
48524;SDS011;34316;51.514;-0.178;2022-12-07T07:26:44;66.00;;;38.00;;
48524;SDS011;34316;51.514;-0.178;2022-12-07T07:28:45;71.65;;;38.72;;
48524;SDS011;34316;51.514;-0.178;2022-12-07T07:30:47;69.10;;;37.88;;
48524;SDS011;34316;51.514;-0.178;2022-12-07T07:32:49;71.97;;;39.15;;
48524;SDS011;34316;51.514;-0.178;2022-12-07T07:34:50;69.55;;;38.55;;
48524;SDS011;34316;51.514;-0.178;2022-12-07T07:36:52;63.53;;;37.15;;
48524;SDS011;34316;51.514;-0.178;2022-12-07T07:38:54;68.57;;;37.55;;
48524;SDS011;34316;51.514;-0.178;2022-12-07T07:40:55;66.28;;;37.13;;
48524;SDS011;34316;51.514;-0.178;2022-12-07T07:42:57;79.35;;;38.20;;
48524;SDS011;34316;51.514;-0.178;2022-12-07T07:44:59;66.35;;;37.67;;
48524;SDS011;34316;51.514;-0.178;2022-12-07T07:47:02;61.58;;;36.15;;
48524;SDS011;34316;51.514;-0.178;2022-12-07T07:49:04;62.17;;;35.40;;
48524;SDS011;34316;51.514;-0.178;2022-12-07T07:51:06;67.18;;;36.80;;
48524;SDS011;34316;51.514;-0.178;2022-12-07T07:53:09;62.05;;;33.20;;
48524;SDS011;34316;51.514;-0.178;2022-12-07T07:55:11;61.17;;;32.80;;
48524;SDS011;34316;51.514;-0.178;2022-12-07T07:57:13;62.30;;;32.60;;
48524;SDS011;34316;51.514;-0.178;2022-12-07T07:59:15;60.88;;;33.95;;
48524;SDS011;34316;51.514;-0.178;2022-12-07T08:01:17;66.32;;;32.40;;
48524;SDS011;34316;51.514;-0.178;2022-12-07T08:03:20;59.30;;;31.50;;
48524;SDS011;34316;51.514;-0.178;2022-12-07T08:05:22;54.85;;;31.42;;
48524;SDS011;34316;51.514;-0.178;2022-12-07T08:07:24;54.63;;;30.88;;
48524;SDS011;34316;51.514;-0.178;2022-12-07T08:09:25;49.55;;;30.23;;
48524;SDS011;34316;51.514;-0.178;2022-12-07T08:11:27;49.67;;;31.10;;
48524;SDS011;34316;51.514;-0.178;2022-12-07T08:13:29;50.35;;;29.27;;
48524;SDS011;34316;51.514;-0.178;2022-12-07T08:15:32;53.15;;;30.00;;
48524;SDS011;34316;51.514;-0.178;2022-12-07T08:17:33;52.50;;;29.92;;
48524;SDS011;34316;51.514;-0.178;2022-12-07T08:19:35;61.50;;;32.10;;
48524;SDS011;34316;51.514;-0.178;2022-12-07T08:21:37;55.95;;;29.83;;
48524;SDS011;34316;51.514;-0.178;2022-12-07T08:23:39;50.55;;;28.05;;
48524;SDS011;34316;51.514;-0.178;2022-12-07T08:25:41;59.53;;;30.42;;
48524;SDS011;34316;51.514;-0.178;2022-12-07T08:27:42;52.67;;;31.70;;
48524;SDS011;34316;51.514;-0.178;2022-12-07T08:29:44;71.47;;;32.47;;
48524;SDS011;34316;51.514;-0.178;2022-12-07T08:31:46;62.65;;;33.50;;
48524;SDS011;34316;51.514;-0.178;2022-12-07T08:33:48;56.88;;;31.33;;
48524;SDS011;34316;51.514;-0.178;2022-12-07T08:35:50;56.30;;;30.08;;
48524;SDS011;34316;51.514;-0.178;2022-12-07T08:37:51;52.75;;;29.45;;
48524;SDS011;34316;51.514;-0.178;2022-12-07T08:39:53;56.60;;;30.33;;
48524;SDS011;34316;51.514;-0.178;2022-12-07T08:41:55;54.85;;;30.42;;
48524;SDS011;34316;51.514;-0.178;2022-12-07T08:43:57;53.70;;;31.00;;
48524;SDS011;34316;51.514;-0.178;2022-12-07T08:48:22;62.40;;;30.60;;
48524;SDS011;34316;51.514;-0.178;2022-12-07T08:50:25;46.22;;;27.60;;
48524;SDS011;34316;51.514;-0.178;2022-12-07T08:52:27;45.80;;;25.73;;
48524;SDS011;34316;51.514;-0.178;2022-12-07T08:54:31;46.05;;;27.45;;
48524;SDS011;34316;51.514;-0.178;2022-12-07T08:56:35;47.78;;;25.00;;
48524;SDS011;34316;51.514;-0.178;2022-12-07T08:58:37;44.60;;;26.13;;
48524;SDS011;34316;51.514;-0.178;2022-12-07T09:00:39;47.08;;;26.58;;
48524;SDS011;34316;51.514;-0.178;2022-12-07T09:02:41;45.25;;;26.33;;
48524;SDS011;34316;51.514;-0.178;2022-12-07T09:04:43;43.72;;;26.17;;
48524;SDS011;34316;51.514;-0.178;2022-12-07T09:06:44;51.28;;;26.52;;
48524;SDS011;34316;51.514;-0.178;2022-12-07T09:08:47;48.97;;;27.60;;
48524;SDS011;34316;51.514;-0.178;2022-12-07T09:10:51;51.92;;;27.67;;
48524;SDS011;34316;51.514;-0.178;2022-12-07T09:12:52;47.95;;;26.55;;
48524;SDS011;34316;51.514;-0.178;2022-12-07T09:14:54;56.65;;;29.50;;
48524;SDS011;34316;51.514;-0.178;2022-12-07T09:17:04;52.58;;;29.75;;
48524;SDS011;34316;51.514;-0.178;2022-12-07T09:19:09;56.35;;;30.27;;
48524;SDS011;34316;51.514;-0.178;2022-12-07T09:21:11;43.35;;;25.45;;
48524;SDS011;34316;51.514;-0.178;2022-12-07T09:23:13;45.47;;;25.63;;
48524;SDS011;34316;51.514;-0.178;2022-12-07T09:25:14;47.92;;;25.67;;
48524;SDS011;34316;51.514;-0.178;2022-12-07T09:27:16;46.22;;;25.52;;
48524;SDS011;34316;51.514;-0.178;2022-12-07T09:29:19;45.35;;;26.30;;
48524;SDS011;34316;51.514;-0.178;2022-12-07T09:31:20;51.00;;;27.35;;
48524;SDS011;34316;51.514;-0.178;2022-12-07T09:33:25;54.53;;;26.85;;
48524;SDS011;34316;51.514;-0.178;2022-12-07T09:35:26;49.10;;;26.77;;
48524;SDS011;34316;51.514;-0.178;2022-12-07T09:37:28;47.15;;;26.83;;
48524;SDS011;34316;51.514;-0.178;2022-12-07T09:39:30;48.72;;;25.95;;
48524;SDS011;34316;51.514;-0.178;2022-12-07T09:41:32;47.92;;;26.60;;
48524;SDS011;34316;51.514;-0.178;2022-12-07T09:43:34;51.88;;;27.00;;
48524;SDS011;34316;51.514;-0.178;2022-12-07T09:45:37;46.55;;;25.10;;
48524;SDS011;34316;51.514;-0.178;2022-12-07T09:47:45;41.92;;;24.30;;
48524;SDS011;34316;51.514;-0.178;2022-12-07T09:49:47;41.50;;;25.02;;
48524;SDS011;34316;51.514;-0.178;2022-12-07T09:51:59;48.88;;;25.45;;
48524;SDS011;34316;51.514;-0.178;2022-12-07T09:54:18;46.75;;;25.33;;
48524;SDS011;34316;51.514;-0.178;2022-12-07T09:56:20;43.83;;;24.63;;
48524;SDS011;34316;51.514;-0.178;2022-12-07T09:58:25;44.70;;;24.38;;
48524;SDS011;34316;51.514;-0.178;2022-12-07T10:00:29;39.40;;;21.85;;
48524;SDS011;34316;51.514;-0.178;2022-12-07T10:02:35;46.88;;;24.48;;
48524;SDS011;34316;51.514;-0.178;2022-12-07T10:04:39;41.85;;;22.90;;
48524;SDS011;34316;51.514;-0.178;2022-12-07T10:06:41;46.40;;;24.13;;
48524;SDS011;34316;51.514;-0.178;2022-12-07T10:08:43;41.38;;;22.55;;
48524;SDS011;34316;51.514;-0.178;2022-12-07T10:10:46;40.35;;;22.70;;
48524;SDS011;34316;51.514;-0.178;2022-12-07T10:12:53;43.80;;;23.88;;
48524;SDS011;34316;51.514;-0.178;2022-12-07T10:15:03;40.80;;;22.98;;
48524;SDS011;34316;51.514;-0.178;2022-12-07T10:17:26;41.28;;;22.08;;
48524;SDS011;34316;51.514;-0.178;2022-12-07T10:19:41;38.85;;;22.98;;
48524;SDS011;34316;51.514;-0.178;2022-12-07T10:21:58;38.35;;;23.58;;
48524;SDS011;34316;51.514;-0.178;2022-12-07T10:24:14;42.15;;;23.35;;
48524;SDS011;34316;51.514;-0.178;2022-12-07T10:26:35;44.03;;;23.65;;
48524;SDS011;34316;51.514;-0.178;2022-12-07T10:28:42;39.17;;;22.52;;
48524;SDS011;34316;51.514;-0.178;2022-12-07T10:30:48;41.78;;;22.55;;
48524;SDS011;34316;51.514;-0.178;2022-12-07T10:35:33;42.47;;;22.23;;
48524;SDS011;34316;51.514;-0.178;2022-12-07T10:37:44;42.20;;;20.88;;
48524;SDS011;34316;51.514;-0.178;2022-12-07T10:39:53;41.25;;;22.48;;
48524;SDS011;34316;51.514;-0.178;2022-12-07T10:42:00;41.88;;;21.52;;
48524;SDS011;34316;51.514;-0.178;2022-12-07T10:44:03;38.95;;;22.08;;
48524;SDS011;34316;51.514;-0.178;2022-12-07T10:46:20;41.67;;;21.88;;
48524;SDS011;34316;51.514;-0.178;2022-12-07T10:48:37;43.70;;;21.27;;
48524;SDS011;34316;51.514;-0.178;2022-12-07T10:51:16;43.42;;;22.40;;
48524;SDS011;34316;51.514;-0.178;2022-12-07T10:57:51;48.83;;;22.67;;
48524;SDS011;34316;51.514;-0.178;2022-12-07T11:00:21;35.22;;;20.15;;
48524;SDS011;34316;51.514;-0.178;2022-12-07T11:02:43;41.25;;;20.65;;
48524;SDS011;34316;51.514;-0.178;2022-12-07T11:10:02;41.80;;;18.63;;
48524;SDS011;34316;51.514;-0.178;2022-12-07T11:12:23;33.65;;;18.40;;
48524;SDS011;34316;51.514;-0.178;2022-12-07T11:14:58;35.95;;;18.83;;
48524;SDS011;34316;51.514;-0.178;2022-12-07T11:17:13;37.88;;;19.45;;
48524;SDS011;34316;51.514;-0.178;2022-12-07T11:24:23;35.22;;;20.35;;
48524;SDS011;34316;51.514;-0.178;2022-12-07T11:34:03;30.10;;;18.67;;
48524;SDS011;34316;51.514;-0.178;2022-12-07T11:38:38;33.13;;;17.73;;
48524;SDS011;34316;51.514;-0.178;2022-12-07T11:40:51;36.08;;;19.30;;
48524;SDS011;34316;51.514;-0.178;2022-12-07T11:42:59;31.27;;;18.70;;
48524;SDS011;34316;51.514;-0.178;2022-12-07T11:45:27;33.00;;;17.73;;
48524;SDS011;34316;51.514;-0.178;2022-12-07T11:47:47;31.13;;;18.42;;
48524;SDS011;34316;51.514;-0.178;2022-12-07T11:52:22;32.08;;;17.50;;
48524;SDS011;34316;51.514;-0.178;2022-12-07T11:54:46;33.35;;;17.02;;
48524;SDS011;34316;51.514;-0.178;2022-12-07T11:56:50;30.88;;;17.25;;
48524;SDS011;34316;51.514;-0.178;2022-12-07T11:58:57;31.02;;;17.20;;
48524;SDS011;34316;51.514;-0.178;2022-12-07T12:03:20;31.85;;;18.33;;
48524;SDS011;34316;51.514;-0.178;2022-12-07T12:05:31;36.60;;;18.45;;
48524;SDS011;34316;51.514;-0.178;2022-12-07T12:07:33;34.88;;;18.88;;
48524;SDS011;34316;51.514;-0.178;2022-12-07T12:09:57;35.17;;;18.40;;
48524;SDS011;34316;51.514;-0.178;2022-12-07T12:19:32;28.42;;;16.45;;
48524;SDS011;34316;51.514;-0.178;2022-12-07T12:21:35;25.67;;;16.30;;
48524;SDS011;34316;51.514;-0.178;2022-12-07T12:23:50;27.73;;;15.82;;
48524;SDS011;34316;51.514;-0.178;2022-12-07T12:26:01;35.00;;;15.50;;
48524;SDS011;34316;51.514;-0.178;2022-12-07T12:28:04;31.58;;;15.60;;
48524;SDS011;34316;51.514;-0.178;2022-12-07T12:30:06;27.30;;;15.18;;
48524;SDS011;34316;51.514;-0.178;2022-12-07T12:32:40;21.88;;;13.15;;
48524;SDS011;34316;51.514;-0.178;2022-12-07T12:37:01;31.38;;;14.55;;
48524;SDS011;34316;51.514;-0.178;2022-12-07T12:41:08;29.30;;;15.75;;
48524;SDS011;34316;51.514;-0.178;2022-12-07T12:43:51;27.15;;;15.70;;
48524;SDS011;34316;51.514;-0.178;2022-12-07T12:48:35;35.70;;;15.77;;
48524;SDS011;34316;51.514;-0.178;2022-12-07T12:50:38;29.50;;;15.48;;
48524;SDS011;34316;51.514;-0.178;2022-12-07T12:54:58;27.45;;;16.77;;
48524;SDS011;34316;51.514;-0.178;2022-12-07T12:59:26;28.65;;;15.15;;
48524;SDS011;34316;51.514;-0.178;2022-12-07T13:01:41;36.72;;;15.68;;
48524;SDS011;34316;51.514;-0.178;2022-12-07T13:03:53;33.67;;;15.23;;
48524;SDS011;34316;51.514;-0.178;2022-12-07T13:08:21;33.05;;;15.25;;
48524;SDS011;34316;51.514;-0.178;2022-12-07T13:10:37;35.10;;;16.30;;
48524;SDS011;34316;51.514;-0.178;2022-12-07T13:12:40;30.90;;;17.00;;
48524;SDS011;34316;51.514;-0.178;2022-12-07T13:14:58;37.28;;;16.15;;
48524;SDS011;34316;51.514;-0.178;2022-12-07T13:17:00;29.00;;;16.02;;
48524;SDS011;34316;51.514;-0.178;2022-12-07T13:19:02;23.70;;;15.23;;
48524;SDS011;34316;51.514;-0.178;2022-12-07T13:21:45;31.02;;;14.95;;
48524;SDS011;34316;51.514;-0.178;2022-12-07T13:26:01;21.90;;;14.43;;
48524;SDS011;34316;51.514;-0.178;2022-12-07T13:28:14;27.48;;;14.30;;
48524;SDS011;34316;51.514;-0.178;2022-12-07T13:30:19;25.35;;;13.70;;
48524;SDS011;34316;51.514;-0.178;2022-12-07T13:32:23;25.27;;;14.32;;
48524;SDS011;34316;51.514;-0.178;2022-12-07T13:34:33;25.83;;;14.65;;
48524;SDS011;34316;51.514;-0.178;2022-12-07T13:36:39;29.23;;;14.10;;